Rachel — D5CG4 — position and weather

sailwx.info

Track history (hours):
 
Tides and Currents Weather Stations Pressure Air Temp Water Temp Dewpoint Dewpoint Depression Visibility Wind Speed Wind Dir Waves Ship Positions

Rachel

Last reported at 2015-May-28 16:30 UTC. Time now 2015-May-30 00:28 UTC.
Position S 25°26' W 042°39'.

Length 189 m; draft 12 m.

Type: Cargo ship. MMSI: 636015692.

Date/timePositionNaut miles runAvg speedWind from/ knotsBaromVisibWave heightAir tempDewpointWater temp
2015-May-28 16:30S 25°26' W 042°39'1010.0
2015-May-28 15:31S 25°20' W 042°48'  
2015-May-25 17:33S 24°05' W 046°19'0 0.0
2015-May-25 16:34S 24°05' W 046°19'1 1.1
2015-May-25 15:33S 24°04' W 046°19'3 3.1
2015-May-25 14:31S 24°01' W 046°20'0 0.1
2015-May-25 13:31S 24°01' W 046°20'0 0.1
2015-May-25 12:31S 24°01' W 046°20'0 0.1
2015-May-25 11:33S 24°01' W 046°20'3 2.7
2015-May-25 10:33S 24°03' W 046°21'9 8.6
2015-May-25 09:33S 24°12' W 046°19'0 0.5
2015-May-25 08:33S 24°12' W 046°18'0 0.0
2015-May-25 07:33S 24°12' W 046°18'0 0.1
2015-May-25 06:33S 24°12' W 046°18'0 0.1
2015-May-25 05:33S 24°12' W 046°19'0 0.1
2015-May-25 04:33S 24°12' W 046°19'0 0.0
2015-May-25 03:33S 24°12' W 046°19'0 0.1
2015-May-25 02:33S 24°12' W 046°19'0 0.0
2015-May-25 01:33S 24°12' W 046°19'0 0.0
2015-May-25 00:30S 24°12' W 046°19'0 0.0
2015-May-24 23:33S 24°12' W 046°19'0 0.0
2015-May-24 22:33S 24°12' W 046°19'0 0.0
2015-May-24 21:30S 24°12' W 046°19'0 0.0
2015-May-24 20:33S 24°12' W 046°19'0 0.0
2015-May-24 19:33S 24°12' W 046°19'0 0.0
2015-May-24 18:33S 24°12' W 046°19'0 0.0
2015-May-24 17:33S 24°12' W 046°19'0 0.0
2015-May-24 16:33S 24°12' W 046°19'0 0.1
2015-May-24 15:33S 24°12' W 046°18'0 0.0
2015-May-24 14:33S 24°12' W 046°18'0 0.0
2015-May-24 13:33S 24°12' W 046°18'0 0.1
2015-May-24 12:33S 24°12' W 046°18'0 0.0
2015-May-24 11:33S 24°12' W 046°18'0 0.0
2015-May-24 10:33S 24°12' W 046°19'0 0.0
2015-May-24 09:30S 24°12' W 046°19'0 0.0
2015-May-24 08:33S 24°12' W 046°19'0 0.0
2015-May-24 07:30S 24°12' W 046°19'0 0.0
2015-May-24 06:33S 24°12' W 046°19'0 0.0
2015-May-24 05:33S 24°12' W 046°19'0 0.0
2015-May-24 04:30S 24°12' W 046°19'0 0.0
2015-May-24 03:27S 24°12' W 046°19'0 0.0
2015-May-24 02:33S 24°12' W 046°19'0 0.0
2015-May-24 01:30S 24°12' W 046°19'0 0.0
2015-May-24 00:24S 24°12' W 046°19'0 0.0
2015-May-23 23:30S 24°12' W 046°19'0 0.0
2015-May-23 22:33S 24°12' W 046°19'0 0.0
2015-May-23 21:33S 24°12' W 046°19'0 0.0
2015-May-23 20:27S 24°12' W 046°19'0 0.0
2015-May-23 19:33S 24°12' W 046°19'0 0.0
2015-May-23 18:33S 24°12' W 046°19'0 0.0
2015-May-23 17:27S 24°12' W 046°19'0 0.0
2015-May-23 16:27S 24°12' W 046°19'0 0.0
2015-May-23 15:30S 24°12' W 046°19'0 0.1
2015-May-23 14:33S 24°12' W 046°19'3 3.0
2015-May-23 13:33S 24°15' W 046°18'7 7.5
2015-May-23 12:34S 24°22' W 046°15'1210.9
2015-May-23 11:30S 24°23' W 046°03'1111.1
2015-May-23 10:34S 24°22' W 045°51'1111.1
2015-May-23 09:32S 24°20' W 045°39'1511.4
2015-May-23 08:15S 24°18' W 045°23'7 7.2
2015-May-23 07:12S 24°20' W 045°31'  
Track history (hours):
 
Tides and Currents Weather Stations Pressure Air Temp Water Temp Dewpoint Dewpoint Depression Visibility Wind Speed Wind Dir Waves Ship Positions

Rachel

Last reported at 2015-May-28 16:30 UTC. Time now 2015-May-30 00:28 UTC.
Position S 25°26' W 042°39'.

Length 189 m; draft 12 m.

Type: Cargo ship. MMSI: 636015692.

Date/timePositionNaut miles runAvg speedWind from/ knotsBaromVisibWave heightAir tempDewpointWater temp
2015-May-28 16:30S 25°26' W 042°39'1010.0
2015-May-28 15:31S 25°20' W 042°48'  
2015-May-25 17:33S 24°05' W 046°19'0 0.0
2015-May-25 16:34S 24°05' W 046°19'1 1.1
2015-May-25 15:33S 24°04' W 046°19'3 3.1
2015-May-25 14:31S 24°01' W 046°20'0 0.1
2015-May-25 13:31S 24°01' W 046°20'0 0.1
2015-May-25 12:31S 24°01' W 046°20'0 0.1
2015-May-25 11:33S 24°01' W 046°20'3 2.7
2015-May-25 10:33S 24°03' W 046°21'9 8.6
2015-May-25 09:33S 24°12' W 046°19'0 0.5
2015-May-25 08:33S 24°12' W 046°18'0 0.0
2015-May-25 07:33S 24°12' W 046°18'0 0.1
2015-May-25 06:33S 24°12' W 046°18'0 0.1
2015-May-25 05:33S 24°12' W 046°19'0 0.1
2015-May-25 04:33S 24°12' W 046°19'0 0.0
2015-May-25 03:33S 24°12' W 046°19'0 0.1
2015-May-25 02:33S 24°12' W 046°19'0 0.0
2015-May-25 01:33S 24°12' W 046°19'0 0.0
2015-May-25 00:30S 24°12' W 046°19'0 0.0
2015-May-24 23:33S 24°12' W 046°19'0 0.0
2015-May-24 22:33S 24°12' W 046°19'0 0.0
2015-May-24 21:30S 24°12' W 046°19'0 0.0
2015-May-24 20:33S 24°12' W 046°19'0 0.0
2015-May-24 19:33S 24°12' W 046°19'0 0.0
2015-May-24 18:33S 24°12' W 046°19'0 0.0
2015-May-24 17:33S 24°12' W 046°19'0 0.0
2015-May-24 16:33S 24°12' W 046°19'0 0.1
2015-May-24 15:33S 24°12' W 046°18'0 0.0
2015-May-24 14:33S 24°12' W 046°18'0 0.0
2015-May-24 13:33S 24°12' W 046°18'0 0.1
2015-May-24 12:33S 24°12' W 046°18'0 0.0
2015-May-24 11:33S 24°12' W 046°18'0 0.0
2015-May-24 10:33S 24°12' W 046°19'0 0.0
2015-May-24 09:30S 24°12' W 046°19'0 0.0
2015-May-24 08:33S 24°12' W 046°19'0 0.0
2015-May-24 07:30S 24°12' W 046°19'0 0.0
2015-May-24 06:33S 24°12' W 046°19'0 0.0
2015-May-24 05:33S 24°12' W 046°19'0 0.0
2015-May-24 04:30S 24°12' W 046°19'0 0.0
2015-May-24 03:27S 24°12' W 046°19'0 0.0
2015-May-24 02:33S 24°12' W 046°19'0 0.0
2015-May-24 01:30S 24°12' W 046°19'0 0.0
2015-May-24 00:24S 24°12' W 046°19'0 0.0
2015-May-23 23:30S 24°12' W 046°19'0 0.0
2015-May-23 22:33S 24°12' W 046°19'0 0.0
2015-May-23 21:33S 24°12' W 046°19'0 0.0
2015-May-23 20:27S 24°12' W 046°19'0 0.0
2015-May-23 19:33S 24°12' W 046°19'0 0.0
2015-May-23 18:33S 24°12' W 046°19'0 0.0
2015-May-23 17:27S 24°12' W 046°19'0 0.0
2015-May-23 16:27S 24°12' W 046°19'0 0.0
2015-May-23 15:30S 24°12' W 046°19'0 0.1
2015-May-23 14:33S 24°12' W 046°19'3 3.0
2015-May-23 13:33S 24°15' W 046°18'7 7.5
2015-May-23 12:34S 24°22' W 046°15'1210.9
2015-May-23 11:30S 24°23' W 046°03'1111.1
2015-May-23 10:34S 24°22' W 045°51'1111.1
2015-May-23 09:32S 24°20' W 045°39'1511.4
2015-May-23 08:15S 24°18' W 045°23'7 7.2
2015-May-23 07:12S 24°20' W 045°31'  

Dump ship's entire track history